createdAt,value
2023-05-07T00:02:05.133Z,8.10
2023-05-07T00:04:37.990Z,8.10
2023-05-07T00:07:05.050Z,8.10
2023-05-07T00:09:32.157Z,8.10
2023-05-07T00:11:59.179Z,8.10
2023-05-07T00:14:26.218Z,8.00
2023-05-07T00:16:53.188Z,8.10
2023-05-07T00:19:20.464Z,8.10
2023-05-07T00:21:47.903Z,8.10
2023-05-07T00:24:15.013Z,8.00
2023-05-07T00:26:41.958Z,8.00
2023-05-07T00:29:08.883Z,8.00
2023-05-07T00:31:36.497Z,8.00
2023-05-07T00:34:03.530Z,8.00
2023-05-07T00:36:31.282Z,8.00
2023-05-07T00:39:01.268Z,8.00
2023-05-07T00:41:28.223Z,8.00
2023-05-07T00:43:55.136Z,8.00
2023-05-07T00:46:22.738Z,8.00
2023-05-07T00:48:50.839Z,8.00
2023-05-07T00:51:19.272Z,8.00
2023-05-07T00:53:47.531Z,8.00
2023-05-07T00:56:14.811Z,8.00
2023-05-07T00:58:42.145Z,8.00
2023-05-07T01:01:09.328Z,8.00
2023-05-07T01:03:36.583Z,8.00
2023-05-07T01:06:05.923Z,8.00
2023-05-07T01:08:34.036Z,7.90
2023-05-07T01:11:01.693Z,7.90
2023-05-07T01:13:29.370Z,7.90
2023-05-07T01:15:56.289Z,7.90
2023-05-07T01:18:23.481Z,7.90
2023-05-07T01:20:50.545Z,8.00
2023-05-07T01:23:18.926Z,7.90
2023-05-07T01:25:53.243Z,7.90
2023-05-07T01:28:20.569Z,7.90
2023-05-07T01:30:52.836Z,7.90
2023-05-07T01:33:24.805Z,7.90
2023-05-07T01:35:54.798Z,7.90
2023-05-07T01:38:25.404Z,7.90
2023-05-07T01:40:52.739Z,7.90
2023-05-07T01:43:20.373Z,7.90
2023-05-07T01:45:48.610Z,7.90
2023-05-07T01:48:16.521Z,7.90
2023-05-07T01:50:45.477Z,7.90
2023-05-07T01:53:12.505Z,7.90
2023-05-07T01:55:39.711Z,7.90
2023-05-07T01:58:06.803Z,7.90
2023-05-07T02:00:33.809Z,7.90
2023-05-07T02:03:00.945Z,7.90
2023-05-07T02:05:27.929Z,7.90
2023-05-07T02:07:54.895Z,7.90
2023-05-07T02:10:21.917Z,7.90
2023-05-07T02:12:48.835Z,7.90
2023-05-07T02:15:15.877Z,7.90
2023-05-07T02:18:02.511Z,7.90
2023-05-07T02:20:30.141Z,7.90
2023-05-07T02:22:57.179Z,7.90
2023-05-07T02:25:24.083Z,7.90
2023-05-07T02:27:51.265Z,7.90
2023-05-07T02:30:18.405Z,7.90
2023-05-07T02:32:45.907Z,7.90
2023-05-07T02:35:13.047Z,7.90
2023-05-07T02:37:40.093Z,7.90
2023-05-07T02:40:07.669Z,7.90
2023-05-07T02:42:34.823Z,7.90
2023-05-07T02:45:01.844Z,7.90
2023-05-07T02:47:29.677Z,7.90
2023-05-07T02:49:57.105Z,7.80
2023-05-07T02:52:24.311Z,7.80
2023-05-07T02:54:51.648Z,7.90
2023-05-07T02:57:18.574Z,7.80
2023-05-07T02:59:45.524Z,7.80
2023-05-07T03:02:12.701Z,7.90
2023-05-07T03:04:40.873Z,7.80
2023-05-07T03:07:08.047Z,7.90
2023-05-07T03:09:35.012Z,7.90
2023-05-07T03:12:02.844Z,7.90
2023-05-07T03:14:29.958Z,7.90
2023-05-07T03:16:57.139Z,7.90
2023-05-07T03:19:24.095Z,7.90
2023-05-07T03:21:51.033Z,7.90
2023-05-07T03:24:17.963Z,7.90
2023-05-07T03:26:44.930Z,7.90
2023-05-07T03:29:12.317Z,7.90
2023-05-07T03:31:39.280Z,7.90
2023-05-07T03:34:06.360Z,7.90
2023-05-07T03:36:33.529Z,7.90
2023-05-07T03:39:00.581Z,7.90
2023-05-07T03:41:28.597Z,7.90
2023-05-07T03:43:55.585Z,7.90
2023-05-07T03:46:22.515Z,7.90
2023-05-07T03:48:49.458Z,7.90
2023-05-07T03:51:16.905Z,7.90
2023-05-07T03:53:43.852Z,7.90
2023-05-07T03:56:10.774Z,7.90
2023-05-07T03:58:37.779Z,7.90
2023-05-07T04:01:05.031Z,7.90
2023-05-07T04:03:32.111Z,8.00
2023-05-07T04:05:59.050Z,8.00
2023-05-07T04:08:26.389Z,8.00
2023-05-07T04:11:01.402Z,8.00
2023-05-07T04:13:28.793Z,8.00
2023-05-07T04:15:56.568Z,8.00
2023-05-07T04:18:23.773Z,8.00
2023-05-07T04:20:51.099Z,8.00
2023-05-07T04:23:18.211Z,8.00
2023-05-07T04:25:45.165Z,8.00
2023-05-07T04:28:12.705Z,8.00
2023-05-07T04:30:40.141Z,8.00
2023-05-07T04:33:08.001Z,8.00
2023-05-07T04:35:36.052Z,8.00
2023-05-07T04:38:03.004Z,8.00
2023-05-07T04:40:30.130Z,8.10
2023-05-07T04:42:57.176Z,8.10
2023-05-07T04:45:24.341Z,8.10
2023-05-07T04:47:51.394Z,8.10
2023-05-07T04:50:20.601Z,8.10
2023-05-07T04:52:47.523Z,8.10
2023-05-07T04:55:14.407Z,8.10
2023-05-07T04:57:42.657Z,8.10
2023-05-07T05:00:11.406Z,8.10
2023-05-07T05:02:38.661Z,8.10
2023-05-07T05:05:06.221Z,8.10
2023-05-07T05:07:33.153Z,8.10
2023-05-07T05:10:00.406Z,8.10
2023-05-07T05:12:27.477Z,8.20
2023-05-07T05:14:54.584Z,8.20
2023-05-07T05:17:21.825Z,8.20
2023-05-07T05:19:48.796Z,8.20
2023-05-07T05:22:16.514Z,8.20
2023-05-07T05:24:43.561Z,8.20
2023-05-07T05:27:10.490Z,8.20
2023-05-07T05:29:37.386Z,8.30
2023-05-07T05:32:04.535Z,8.20
2023-05-07T05:34:31.625Z,8.30
2023-05-07T05:36:59.843Z,8.30
2023-05-07T05:39:26.896Z,8.30
2023-05-07T05:41:53.807Z,8.30
2023-05-07T05:44:20.940Z,8.30
2023-05-07T05:46:48.216Z,8.30
2023-05-07T05:49:15.370Z,8.30
2023-05-07T05:51:42.497Z,8.40
2023-05-07T05:54:09.815Z,8.40
2023-05-07T05:56:38.143Z,8.40
2023-05-07T05:59:05.296Z,8.40
2023-05-07T06:01:32.551Z,8.40
2023-05-07T06:03:59.498Z,8.40
2023-05-07T06:06:27.120Z,8.40
2023-05-07T06:08:54.123Z,8.40
2023-05-07T06:11:21.261Z,8.40
2023-05-07T06:13:48.328Z,8.40
2023-05-07T06:16:16.459Z,8.40
2023-05-07T06:18:43.503Z,8.40
2023-05-07T06:21:11.363Z,8.50
2023-05-07T06:23:38.314Z,8.50
2023-05-07T06:26:05.453Z,8.50
2023-05-07T06:28:36.898Z,8.50
2023-05-07T06:31:21.667Z,8.50
2023-05-07T06:33:49.956Z,8.60
2023-05-07T06:36:17.003Z,8.60
2023-05-07T06:38:44.016Z,8.60
2023-05-07T06:41:11.136Z,8.60
2023-05-07T06:43:38.078Z,8.60
2023-05-07T06:46:05.080Z,8.70
2023-05-07T06:48:32.486Z,8.70
2023-05-07T06:50:59.592Z,8.70
2023-05-07T06:53:27.116Z,8.70
2023-05-07T06:55:54.177Z,8.70
2023-05-07T06:58:21.287Z,8.80
2023-05-07T07:00:48.300Z,8.80
2023-05-07T07:03:15.739Z,8.80
2023-05-07T07:05:43.629Z,8.80
2023-05-07T07:08:11.629Z,8.80
2023-05-07T07:10:38.657Z,8.80
2023-05-07T07:13:05.806Z,8.90
2023-05-07T07:15:32.850Z,8.80
2023-05-07T07:17:59.899Z,8.90
2023-05-07T07:20:27.034Z,8.90
2023-05-07T07:22:54.037Z,8.90
2023-05-07T07:25:20.997Z,8.90
2023-05-07T07:27:47.994Z,8.90
2023-05-07T07:30:15.007Z,8.90
2023-05-07T07:32:42.043Z,8.90
2023-05-07T07:35:09.517Z,8.90
2023-05-07T07:37:36.650Z,9.00
2023-05-07T07:40:04.754Z,9.00
2023-05-07T07:42:31.767Z,9.10
2023-05-07T07:44:58.890Z,9.10
2023-05-07T07:47:25.904Z,9.10
2023-05-07T07:49:52.924Z,9.10
2023-05-07T07:52:20.049Z,9.20
2023-05-07T07:54:47.136Z,9.10
2023-05-07T07:57:14.155Z,9.20
2023-05-07T07:59:41.210Z,9.10
2023-05-07T08:02:08.242Z,9.20
2023-05-07T08:04:35.425Z,9.20
2023-05-07T08:07:02.519Z,9.10
2023-05-07T08:09:29.602Z,9.20
2023-05-07T08:11:56.529Z,9.20
2023-05-07T08:14:23.622Z,9.20
2023-05-07T08:16:50.703Z,9.30
2023-05-07T08:19:17.946Z,9.30
2023-05-07T08:21:45.030Z,9.30
2023-05-07T08:24:12.754Z,9.40
2023-05-07T08:26:40.582Z,9.30
2023-05-07T08:29:07.655Z,9.40
2023-05-07T08:31:34.586Z,9.40
2023-05-07T08:34:01.881Z,9.50
2023-05-07T08:36:29.703Z,9.60
2023-05-07T08:41:32.494Z,9.80
2023-05-07T08:44:03.675Z,9.70
2023-05-07T08:46:33.545Z,9.80
2023-05-07T08:49:00.992Z,9.80
2023-05-07T08:51:28.253Z,9.80
2023-05-07T08:53:55.671Z,9.80
2023-05-07T08:56:22.905Z,9.80
2023-05-07T08:58:50.399Z,9.80
2023-05-07T09:01:18.433Z,9.70
2023-05-07T09:03:47.332Z,9.70
2023-05-07T09:06:14.480Z,9.80
2023-05-07T09:08:41.542Z,9.80
2023-05-07T09:11:08.748Z,9.90
2023-05-07T09:13:35.735Z,10.00
2023-05-07T09:16:13.418Z,10.00
2023-05-07T09:18:44.431Z,10.10
2023-05-07T09:21:12.950Z,10.00
2023-05-07T09:23:40.621Z,10.10
2023-05-07T09:26:12.848Z,10.20
2023-05-07T09:28:42.318Z,10.20
2023-05-07T09:31:10.617Z,10.20
2023-05-07T09:33:37.917Z,10.20
2023-05-07T09:36:06.194Z,10.20
2023-05-07T09:38:34.800Z,10.20
2023-05-07T09:41:06.473Z,10.10
2023-05-07T09:43:38.265Z,10.20
2023-05-07T09:46:09.067Z,10.10
2023-05-07T09:48:39.685Z,10.10
2023-05-07T09:51:12.906Z,10.10
2023-05-07T09:53:42.007Z,10.20
2023-05-07T09:56:08.999Z,10.30
2023-05-07T09:58:39.054Z,10.30
2023-05-07T10:01:06.948Z,10.40
2023-05-07T10:03:37.544Z,10.70
2023-05-07T10:06:06.190Z,10.80
2023-05-07T10:08:33.337Z,10.90
2023-05-07T10:11:01.231Z,11.00
2023-05-07T10:13:28.589Z,11.10
2023-05-07T10:15:56.646Z,11.00
2023-05-07T10:18:24.911Z,11.00
2023-05-07T10:20:54.142Z,11.00
2023-05-07T10:23:25.002Z,10.80
2023-05-07T10:25:55.423Z,10.70
2023-05-07T10:28:27.801Z,10.60
2023-05-07T10:30:58.327Z,10.60
2023-05-07T10:33:29.879Z,10.50
2023-05-07T10:36:00.947Z,10.50
2023-05-07T10:38:28.927Z,10.50
2023-05-07T10:40:56.132Z,10.70
2023-05-07T10:43:23.260Z,10.70
2023-05-07T10:46:13.349Z,10.70
2023-05-07T10:49:03.017Z,10.70
2023-05-07T10:51:31.684Z,10.70
2023-05-07T10:54:11.016Z,10.70
2023-05-07T10:56:41.627Z,10.80
2023-05-07T10:59:31.856Z,10.70
2023-05-07T11:02:05.219Z,10.60
2023-05-07T11:04:35.917Z,10.60
2023-05-07T11:07:13.154Z,10.60
2023-05-07T11:09:57.011Z,10.60
2023-05-07T11:12:39.459Z,10.60
2023-05-07T11:15:16.723Z,10.70
2023-05-07T11:17:57.773Z,10.60
2023-05-07T11:20:47.013Z,10.50
2023-05-07T11:23:39.397Z,10.40
2023-05-07T11:26:07.224Z,10.40
2023-05-07T11:28:41.909Z,10.40
2023-05-07T11:31:09.970Z,10.40
2023-05-07T11:33:38.706Z,10.40
2023-05-07T11:36:06.797Z,10.40
2023-05-07T11:38:38.253Z,10.60
2023-05-07T11:41:07.954Z,10.70
2023-05-07T11:43:36.885Z,10.80
2023-05-07T11:46:12.460Z,10.90
2023-05-07T11:48:40.423Z,10.90
2023-05-07T11:51:10.144Z,10.90
2023-05-07T11:53:42.396Z,11.00
2023-05-07T11:56:16.667Z,11.20
2023-05-07T11:58:45.487Z,11.30
2023-05-07T12:01:14.246Z,11.40
2023-05-07T12:03:43.850Z,11.40
2023-05-07T12:06:12.914Z,11.40
2023-05-07T12:08:41.541Z,11.40
2023-05-07T12:11:10.857Z,11.40
2023-05-07T12:13:38.181Z,11.30
2023-05-07T12:16:06.919Z,11.30
2023-05-07T12:18:35.507Z,11.40
2023-05-07T12:21:03.292Z,11.40
2023-05-07T12:23:31.089Z,11.30
2023-05-07T12:25:58.300Z,11.40
2023-05-07T12:28:25.494Z,11.30
2023-05-07T12:30:53.902Z,11.30
2023-05-07T12:33:25.951Z,11.30
2023-05-07T12:35:55.855Z,11.30
2023-05-07T12:38:23.356Z,11.20
2023-05-07T12:40:52.520Z,11.30
2023-05-07T12:43:21.538Z,11.30
2023-05-07T12:45:50.432Z,11.30
2023-05-07T12:48:17.718Z,11.20
2023-05-07T12:50:44.812Z,11.20
2023-05-07T12:53:13.483Z,11.10
2023-05-07T12:55:48.460Z,11.10
2023-05-07T12:58:37.360Z,11.30
2023-05-07T13:01:09.006Z,11.30
2023-05-07T13:03:38.163Z,11.20
2023-05-07T13:06:07.921Z,11.20
2023-05-07T13:08:41.637Z,11.30
2023-05-07T13:11:10.352Z,11.30
2023-05-07T13:13:39.762Z,11.30
2023-05-07T13:16:08.473Z,11.40
2023-05-07T13:18:36.122Z,11.40
2023-05-07T13:21:03.284Z,11.40
2023-05-07T13:23:30.694Z,11.40
2023-05-07T13:25:58.034Z,11.50
2023-05-07T13:28:28.156Z,11.50
2023-05-07T13:30:55.900Z,11.50
2023-05-07T13:33:22.922Z,11.60
2023-05-07T13:35:49.949Z,11.60
2023-05-07T13:38:17.333Z,11.60
2023-05-07T13:40:44.297Z,11.50
2023-05-07T13:43:11.768Z,11.60
2023-05-07T13:45:39.066Z,11.70
2023-05-07T13:48:06.306Z,11.70
2023-05-07T13:50:33.389Z,11.70
2023-05-07T13:53:00.322Z,11.70
2023-05-07T13:55:29.559Z,11.50
2023-05-07T13:58:06.854Z,11.50
2023-05-07T14:00:34.353Z,11.40
2023-05-07T14:03:01.425Z,11.40
2023-05-07T14:05:29.294Z,11.30
2023-05-07T14:07:58.721Z,11.40
2023-05-07T14:10:26.030Z,11.40
2023-05-07T14:12:54.035Z,11.30
2023-05-07T14:15:21.364Z,11.40
2023-05-07T14:17:48.453Z,11.40
2023-05-07T14:20:15.724Z,11.40
2023-05-07T14:22:42.735Z,11.50
2023-05-07T14:25:10.916Z,11.50
2023-05-07T14:27:38.212Z,11.60
2023-05-07T14:30:06.140Z,11.60
2023-05-07T14:32:34.127Z,11.50
2023-05-07T14:35:01.301Z,11.50
2023-05-07T14:37:28.389Z,11.60
2023-05-07T14:39:55.406Z,11.70
2023-05-07T14:42:22.490Z,11.70
2023-05-07T14:44:49.506Z,11.80
2023-05-07T14:47:18.298Z,11.70
2023-05-07T14:49:46.844Z,11.70
2023-05-07T14:52:13.848Z,11.70
2023-05-07T14:54:41.037Z,11.70
2023-05-07T14:57:09.613Z,11.70
2023-05-07T14:59:36.585Z,11.70
2023-05-07T15:02:06.264Z,11.70
2023-05-07T15:04:34.525Z,11.80
2023-05-07T15:07:01.769Z,11.80
2023-05-07T15:09:28.717Z,11.80
2023-05-07T15:11:56.410Z,11.80
2023-05-07T15:14:23.373Z,11.90
2023-05-07T15:16:51.032Z,12.00
2023-05-07T15:19:18.241Z,12.30
2023-05-07T15:21:45.481Z,12.30
2023-05-07T15:24:12.582Z,12.20
2023-05-07T15:26:39.650Z,12.10
2023-05-07T15:29:11.365Z,11.90
2023-05-07T15:31:40.011Z,11.80
2023-05-07T15:34:07.527Z,11.90
2023-05-07T15:36:34.556Z,11.80
2023-05-07T15:39:03.688Z,11.70
2023-05-07T15:41:30.977Z,11.70
2023-05-07T15:43:58.198Z,11.60
2023-05-07T15:46:26.689Z,11.60
2023-05-07T15:48:54.295Z,11.50
2023-05-07T15:51:22.903Z,11.40
2023-05-07T15:53:52.320Z,11.30
2023-05-07T15:56:19.290Z,11.20
2023-05-07T15:58:46.604Z,11.20
2023-05-07T16:01:13.733Z,11.10
2023-05-07T16:03:41.286Z,11.10
2023-05-07T16:06:08.613Z,11.00
2023-05-07T16:08:35.636Z,10.90
2023-05-07T16:11:02.757Z,10.90
2023-05-07T16:13:29.683Z,10.90
2023-05-07T16:15:58.501Z,10.90
2023-05-07T16:18:25.995Z,10.90
2023-05-07T16:20:53.056Z,10.80
2023-05-07T16:23:20.419Z,10.90
2023-05-07T16:25:47.463Z,10.90
2023-05-07T16:28:15.225Z,10.80
2023-05-07T16:30:43.057Z,10.70
2023-05-07T16:33:10.376Z,10.70
2023-05-07T16:35:37.529Z,10.70
2023-05-07T16:38:10.215Z,10.70
2023-05-07T16:40:40.895Z,10.50
2023-05-07T16:43:08.165Z,10.50
2023-05-07T16:45:35.379Z,10.50
2023-05-07T16:48:03.482Z,10.40
2023-05-07T16:50:30.747Z,10.40
2023-05-07T16:52:57.739Z,10.30
2023-05-07T16:55:24.925Z,10.40
2023-05-07T16:57:52.090Z,10.40
2023-05-07T17:00:19.518Z,10.30
2023-05-07T17:02:47.267Z,10.20
2023-05-07T17:05:14.707Z,10.30
2023-05-07T17:07:42.072Z,10.20
2023-05-07T17:10:09.535Z,10.20
2023-05-07T17:12:37.770Z,10.10
2023-05-07T17:15:05.263Z,10.10
2023-05-07T17:17:33.828Z,10.20
2023-05-07T17:20:01.446Z,10.10
2023-05-07T17:22:28.507Z,10.00
2023-05-07T17:24:55.553Z,10.00
2023-05-07T17:27:22.573Z,10.00
2023-05-07T17:29:49.850Z,10.00
2023-05-07T17:32:17.051Z,10.00
2023-05-07T17:34:44.116Z,9.90
2023-05-07T17:37:11.160Z,9.90
2023-05-07T17:39:38.128Z,9.80
2023-05-07T17:42:05.292Z,9.80
2023-05-07T17:44:33.882Z,9.80
2023-05-07T17:47:01.274Z,9.80
2023-05-07T17:49:28.403Z,9.80
2023-05-07T17:51:55.949Z,9.80
2023-05-07T17:54:26.490Z,9.70
2023-05-07T17:56:53.459Z,9.70
2023-05-07T17:59:20.363Z,9.70
2023-05-07T18:01:47.510Z,9.70
2023-05-07T18:04:14.812Z,9.70
2023-05-07T18:06:42.434Z,9.70
2023-05-07T18:09:09.637Z,9.80
2023-05-07T18:11:37.860Z,9.80
2023-05-07T18:14:05.232Z,9.80
2023-05-07T18:16:32.409Z,9.80
2023-05-07T18:18:59.594Z,9.70
2023-05-07T18:21:27.284Z,9.70
2023-05-07T18:23:54.344Z,9.60
2023-05-07T18:26:21.576Z,9.60
2023-05-07T18:28:48.566Z,9.70
2023-05-07T18:31:16.048Z,9.60
2023-05-07T18:33:43.193Z,9.60
2023-05-07T18:36:10.112Z,9.60
2023-05-07T18:38:37.098Z,9.60
2023-05-07T18:41:05.336Z,9.60
2023-05-07T18:43:34.186Z,9.60
2023-05-07T18:46:01.467Z,9.50
2023-05-07T18:48:28.521Z,9.50
2023-05-07T18:50:55.638Z,9.50
2023-05-07T18:53:23.885Z,9.50
2023-05-07T18:55:51.736Z,9.60
2023-05-07T18:58:20.378Z,9.50
2023-05-07T19:00:49.001Z,9.40
2023-05-07T19:03:17.512Z,9.50
2023-05-07T19:05:45.747Z,9.40
2023-05-07T19:08:12.713Z,9.40
2023-05-07T19:10:39.777Z,9.30
2023-05-07T19:13:06.853Z,9.40
2023-05-07T19:15:34.080Z,9.30
2023-05-07T19:18:01.503Z,9.30
2023-05-07T19:20:29.356Z,9.30
2023-05-07T19:22:57.116Z,9.30
2023-05-07T19:25:24.315Z,9.30
2023-05-07T19:27:51.456Z,9.20
2023-05-07T19:30:18.948Z,9.20
2023-05-07T19:32:46.126Z,9.20
2023-05-07T19:35:13.579Z,9.30
2023-05-07T19:37:41.001Z,9.20
2023-05-07T19:40:09.671Z,9.20
2023-05-07T19:42:36.842Z,9.20
2023-05-07T19:45:05.522Z,9.20
2023-05-07T19:47:32.580Z,9.20
2023-05-07T19:49:59.729Z,9.20
2023-05-07T19:52:27.369Z,9.10
2023-05-07T19:54:54.774Z,9.10
2023-05-07T19:57:21.972Z,9.10
2023-05-07T19:59:48.882Z,9.10
2023-05-07T20:02:16.556Z,9.10
2023-05-07T20:04:43.657Z,9.10
2023-05-07T20:07:10.653Z,9.10
2023-05-07T20:09:37.596Z,9.10
2023-05-07T20:12:04.858Z,9.10
2023-05-07T20:14:32.793Z,9.10
2023-05-07T20:16:59.830Z,9.00
2023-05-07T20:19:26.950Z,9.10
2023-05-07T20:21:54.020Z,9.10
2023-05-07T20:24:21.254Z,9.10
2023-05-07T20:26:48.191Z,9.10
2023-05-07T20:29:15.106Z,9.10
2023-05-07T20:31:42.286Z,9.10
2023-05-07T20:34:09.244Z,9.10
2023-05-07T20:36:36.168Z,9.00
2023-05-07T20:39:04.397Z,9.00
2023-05-07T20:41:31.331Z,9.10
2023-05-07T20:43:58.762Z,9.00
2023-05-07T20:46:27.694Z,9.00
2023-05-07T20:48:54.888Z,9.00
2023-05-07T20:51:21.866Z,9.00
2023-05-07T20:53:49.047Z,9.00
2023-05-07T20:56:16.123Z,9.00
2023-05-07T20:58:43.122Z,9.00
2023-05-07T21:01:10.288Z,9.00
2023-05-07T21:03:37.285Z,9.00
2023-05-07T21:06:04.442Z,9.00
2023-05-07T21:08:31.596Z,9.00
2023-05-07T21:10:59.669Z,9.00
2023-05-07T21:13:26.815Z,9.00
2023-05-07T21:15:53.841Z,9.00
2023-05-07T21:18:21.030Z,9.00
2023-05-07T21:20:48.047Z,8.90
2023-05-07T21:23:15.096Z,8.90
2023-05-07T21:25:42.564Z,8.90
2023-05-07T21:28:09.675Z,8.90
2023-05-07T21:30:37.315Z,8.90
2023-05-07T21:33:06.986Z,8.90
2023-05-07T21:35:36.138Z,8.90
2023-05-07T21:38:03.607Z,8.90
2023-05-07T21:40:31.144Z,8.90
2023-05-07T21:42:59.990Z,8.90
2023-05-07T21:45:27.261Z,8.90
2023-05-07T21:47:54.387Z,8.90
2023-05-07T21:50:22.466Z,8.90
2023-05-07T21:52:49.875Z,8.90
2023-05-07T21:55:19.930Z,8.80
2023-05-07T21:58:01.420Z,8.90
2023-05-07T22:00:31.774Z,8.80
2023-05-07T22:02:58.811Z,8.90
2023-05-07T22:05:25.902Z,8.80
2023-05-07T22:07:52.871Z,8.80
2023-05-07T22:10:22.820Z,8.90
2023-05-07T22:12:50.374Z,8.80
2023-05-07T22:15:17.664Z,8.80
2023-05-07T22:17:44.760Z,8.90
2023-05-07T22:20:12.235Z,8.80
2023-05-07T22:22:56.027Z,8.80
2023-05-07T22:25:24.617Z,8.80
2023-05-07T22:27:52.587Z,8.80
2023-05-07T22:30:19.562Z,8.80
2023-05-07T22:32:46.707Z,8.80
2023-05-07T22:35:13.673Z,8.80
2023-05-07T22:37:40.776Z,8.70
2023-05-07T22:40:08.238Z,8.70
2023-05-07T22:42:35.191Z,8.70
2023-05-07T22:45:02.179Z,8.80
2023-05-07T22:47:31.008Z,8.70
2023-05-07T22:49:58.185Z,8.70
2023-05-07T22:52:25.171Z,8.70
2023-05-07T22:54:52.231Z,8.70
2023-05-07T22:57:19.150Z,8.70
2023-05-07T22:59:46.264Z,8.70
2023-05-07T23:02:13.322Z,8.70
2023-05-07T23:04:40.323Z,8.70
2023-05-07T23:07:07.321Z,8.70
2023-05-07T23:09:34.426Z,8.60
2023-05-07T23:12:01.315Z,8.70
2023-05-07T23:14:28.242Z,8.60
2023-05-07T23:16:55.349Z,8.60
2023-05-07T23:19:22.333Z,8.60
2023-05-07T23:21:49.961Z,8.60
2023-05-07T23:24:16.992Z,8.60
2023-05-07T23:26:43.981Z,8.60
2023-05-07T23:29:11.247Z,8.60
2023-05-07T23:31:38.423Z,8.60
2023-05-07T23:34:05.358Z,8.60
2023-05-07T23:36:33.404Z,8.60
2023-05-07T23:39:00.427Z,8.60
2023-05-07T23:41:27.631Z,8.60
2023-05-07T23:43:54.508Z,8.60
2023-05-07T23:46:21.767Z,8.60
2023-05-07T23:48:48.713Z,8.60
2023-05-07T23:51:16.752Z,8.60
2023-05-07T23:53:43.753Z,8.60
2023-05-07T23:56:11.435Z,8.60
2023-05-07T23:58:38.378Z,8.60
